Bella Vista, California
Current Conditions -  °F | °C
As of 7:53 AM on Friday 21 Nov 2014 (Local Time) from KRDD Reporting Station
Overcast Overcast  
Wind Chill: 50°   Ceiling: 3100
Heat Index: 50°   Visibility: 10mi
Dew Point: 48°   Wind: 0mph
Humidity: 93%   Direction: NA
Pressure: 30.09"   Gusts: NA
Location:  40.64°N, 122.23°W
Report Text: KRDD 211553Z 00000KT 10SM OVC031 10/09 A3009 RMK AO2 SLP187 T01000089
Loading
Personal Weather Stations






























Interactive Weather Map New forecast layout! Learn more

10-Day Weather Forecast

Advertisements
Track Severe Weather on mobile